Time;durP1;ratioP1;P1;durP2;ratioP2;P2;SDS_P1;SDS_P2;PMS_P1;PMS_P2;Temp;Humidity;BMP_temperature;BMP_pressure;BME280_temperature;BME280_humidity;BME280_pressure;Samples;Min_cycle;Max_cycle;Signal;HPM_P1;HPM_P2
2023/04/28 00:01:56;;;;;;;;;4.00;4.00;;;;;16.81;82.98;100790.38;5083319;27;45390;-75
2023/04/28 00:04:34;;;;;;;;;4.00;4.00;;;;;16.85;82.59;100798.22;5076826;27;45415;-75
2023/04/28 00:07:17;;;;;;;;;4.33;4.33;;;;;16.82;82.53;100790.34;5101547;27;45867;-74
2023/04/28 00:10:11;;;;;;;;;7.33;6.00;;;;;16.68;82.25;100760.66;5058537;27;47675;-74
2023/04/28 00:12:46;;;;;;;;;5.33;4.00;;;;;16.86;82.16;100788.50;5072611;27;45766;-72
2023/04/28 00:15:46;;;;;;;;;6.00;5.33;;;;;16.81;82.11;100769.22;5090915;27;45856;-75
2023/04/28 00:18:25;;;;;;;;;7.00;5.00;;;;;16.98;82.22;100798.78;5058153;27;45505;-75
2023/04/28 00:21:07;;;;;;;;;5.00;5.00;;;;;16.90;82.53;100784.88;5067434;27;46191;-76
2023/04/28 00:23:35;;;;;;;;;6.00;5.00;;;;;16.80;82.61;100773.66;5060280;28;45363;-77
2023/04/28 00:26:05;;;;;;;;;6.00;5.00;;;;;16.95;82.82;100798.88;5056610;28;45521;-73
2023/04/28 00:28:47;;;;;;;;;4.67;4.67;;;;;16.95;83.33;100799.72;5070745;27;45527;-73
2023/04/28 00:31:54;;;;;;;;;4.00;4.00;;;;;16.93;83.13;100801.53;5082582;27;45604;-73
2023/04/28 00:34:21;;;;;;;;;4.00;4.00;;;;;16.90;83.49;100800.75;5054660;28;45376;-72
2023/04/28 00:36:48;;;;;;;;;7.00;3.67;;;;;16.89;83.04;100794.56;5053255;28;45560;-73
2023/04/28 00:39:17;;;;;;;;;6.00;3.33;;;;;16.85;83.56;100784.13;5075190;27;45507;-73
2023/04/28 00:42:27;;;;;;;;;7.00;5.00;;;;;16.92;83.42;100799.81;5060742;27;45901;-75
2023/04/28 00:45:24;;;;;;;;;6.00;4.00;;;;;16.84;83.38;100791.16;5061768;27;45517;-74
2023/04/28 00:48:03;;;;;;;;;4.00;4.00;;;;;16.77;83.61;100765.72;5089886;27;45376;-72
2023/04/28 00:50:37;;;;;;;;;5.00;4.00;;;;;16.79;84.00;100766.59;5075828;28;45361;-73
2023/04/28 00:53:20;;;;;;;;;4.33;3.33;;;;;16.79;83.46;100757.81;5064190;27;46123;-73
2023/04/28 00:56:03;;;;;;;;;4.00;4.00;;;;;16.96;83.27;100779.44;5078024;27;45549;-71
2023/04/28 00:58:44;;;;;;;;;2.67;2.67;;;;;16.77;83.24;100756.94;5078696;28;45506;-72
2023/04/28 01:01:12;;;;;;;;;3.00;3.00;;;;;17.00;83.56;100796.97;5078943;27;45589;-74
2023/04/28 01:03:49;;;;;;;;;3.67;3.67;;;;;16.99;84.00;100795.25;5075543;27;46066;-73
2023/04/28 01:06:19;;;;;;;;;5.00;3.67;;;;;16.95;84.46;100799.72;5090730;27;45352;-71
2023/04/28 01:08:48;;;;;;;;;6.67;5.00;;;;;16.89;84.54;100794.56;5076722;27;45404;-73
2023/04/28 01:11:24;;;;;;;;;4.33;3.00;;;;;16.75;84.46;100776.38;5067341;27;46122;-73
2023/04/28 01:13:52;;;;;;;;;4.00;3.67;;;;;16.84;84.54;100783.22;5063167;27;46216;-72
2023/04/28 01:16:31;;;;;;;;;3.67;3.00;;;;;16.85;85.11;100797.34;5064898;27;45421;-73
2023/04/28 01:19:29;;;;;;;;;3.67;3.67;;;;;16.86;84.99;100786.72;5063839;27;45497;-73
2023/04/28 01:22:30;;;;;;;;;;;;;;;;;;;;;
2023/04/28 01:25:14;;;;;;;;;5.00;3.00;;;;;16.78;85.88;100786.00;5065461;27;75156;-70
2023/04/28 01:28:19;;;;;;;;;4.33;4.33;;;;;16.77;85.42;100789.53;5054746;27;46010;-71
2023/04/28 01:30:52;;;;;;;;;4.00;3.00;;;;;16.61;85.37;100757.31;5062093;27;46232;-73
2023/04/28 01:33:45;;;;;;;;;2.33;2.33;;;;;16.72;85.84;100791.41;5060791;27;45421;-71
2023/04/28 01:36:15;;;;;;;;;5.00;3.00;;;;;16.75;85.83;100788.69;5054546;27;46814;-72
2023/04/28 01:38:54;;;;;;;;;4.00;3.00;;;;;16.77;85.77;100783.38;5054255;28;45297;-73
2023/04/28 01:42:01;;;;;;;;;4.00;3.00;;;;;16.79;85.66;100792.19;5053644;27;45263;-72
2023/04/28 01:44:42;;;;;;;;;3.67;3.67;;;;;16.82;85.58;100800.91;5053132;27;45485;-73
2023/04/28 01:47:48;;;;;;;;;3.33;3.33;;;;;16.82;85.74;100792.13;5062240;27;47043;-72
2023/04/28 01:50:17;;;;;;;;;5.00;3.33;;;;;16.83;85.78;100799.16;5061897;28;45339;-73
2023/04/28 01:53:03;;;;;;;;;3.33;3.33;;;;;16.82;85.43;100792.97;5056902;27;45496;-72
2023/04/28 01:55:37;;;;;;;;;3.33;3.33;;;;;16.58;85.61;100741.47;5054448;27;45519;-73
2023/04/28 01:58:14;;;;;;;;;3.00;3.00;;;;;16.85;85.57;100800.00;5091398;27;45488;-72
2023/04/28 02:00:48;;;;;;;;;3.67;2.67;;;;;16.82;85.75;100798.25;5069757;27;45481;-75
2023/04/28 02:03:28;;;;;;;;;5.00;3.67;;;;;16.73;85.79;100772.03;5054572;27;45875;-73
2023/04/28 02:06:04;;;;;;;;;4.00;4.00;;;;;16.70;86.49;100777.34;5073438;27;45536;-72
2023/04/28 02:08:48;;;;;;;;;3.67;3.67;;;;;16.72;86.05;100783.47;5097804;27;45442;-75
2023/04/28 02:11:29;;;;;;;;;5.00;3.00;;;;;16.72;85.92;100781.69;5088835;27;45519;-73
2023/04/28 02:14:07;;;;;;;;;3.33;3.33;;;;;16.79;85.85;100789.53;5068894;28;45437;-71
2023/04/28 02:16:51;;;;;;;;;6.00;3.67;;;;;16.72;85.93;100773.78;5058853;28;45491;-71
2023/04/28 02:19:25;;;;;;;;;4.00;3.00;;;;;16.35;85.89;100715.59;5077353;27;46481;-73
2023/04/28 02:22:04;;;;;;;;;4.33;4.33;;;;;16.82;85.83;100781.53;5053032;28;45560;-73
2023/04/28 02:24:39;;;;;;;;;6.67;3.67;;;;;16.75;86.19;100770.19;5054427;27;45672;-72
2023/04/28 02:27:15;;;;;;;;;2.67;2.67;;;;;16.80;85.88;100789.53;5068674;27;45578;-73
2023/04/28 02:29:43;;;;;;;;;5.00;4.00;;;;;16.03;86.61;100658.16;5072941;27;45361;-75
2023/04/28 02:32:24;;;;;;;;;4.00;3.00;;;;;16.70;86.70;100785.28;5057892;28;45584;-74
2023/04/28 02:35:09;;;;;;;;;3.00;3.00;;;;;16.77;86.21;100789.53;5057715;27;45424;-74
2023/04/28 02:37:46;;;;;;;;;3.00;3.00;;;;;16.59;86.15;100763.53;5085973;27;45576;-73
2023/04/28 02:40:23;;;;;;;;;2.67;2.67;;;;;16.24;86.44;100710.53;5069601;27;47830;-73
2023/04/28 02:42:55;;;;;;;;;4.33;3.00;;;;;16.73;86.37;100796.69;5063615;27;46005;-72
2023/04/28 02:45:39;;;;;;;;;2.33;2.33;;;;;16.70;86.65;100793.22;5057527;27;45418;-75
2023/04/28 02:48:14;;;;;;;;;3.00;3.00;;;;;16.72;86.65;100794.06;5068197;28;45347;-74
2023/04/28 02:50:51;;;;;;;;;3.67;3.00;;;;;16.75;86.56;100788.69;5072244;27;47964;-73
2023/04/28 02:53:26;;;;;;;;;3.00;3.00;;;;;16.75;86.73;100796.63;5075391;27;45554;-73
2023/04/28 02:56:20;;;;;;;;;4.00;2.00;;;;;16.65;86.67;100774.81;5093868;27;45223;-73
2023/04/28 02:58:57;;;;;;;;;;;;;;;;;;;;;
2023/04/28 03:01:50;;;;;;;;;3.67;2.33;;;;;16.69;86.54;100773.84;5069519;27;74061;-73
2023/04/28 03:04:23;;;;;;;;;2.00;2.00;;;;;16.70;86.76;100772.97;5073253;28;45487;-73
2023/04/28 03:06:57;;;;;;;;;2.00;2.00;;;;;16.69;86.81;100770.34;5093255;27;45359;-73
2023/04/28 03:09:33;;;;;;;;;2.00;2.00;;;;;16.64;86.09;100765.16;5076576;27;45620;-73
2023/04/28 03:12:20;;;;;;;;;2.00;2.00;;;;;16.66;86.13;100763.34;5073536;28;45977;-73
2023/04/28 03:14:50;;;;;;;;;1.00;1.00;;;;;16.69;85.96;100762.41;5073204;27;45468;-71
2023/04/28 03:17:32;;;;;;;;;1.33;1.33;;;;;16.71;85.88;100773.81;5073439;27;45439;-72
2023/04/28 03:20:04;;;;;;;;;1.00;1.00;;;;;16.63;85.73;100751.94;5063505;28;45414;-73
2023/04/28 03:22:42;;;;;;;;;1.00;1.00;;;;;16.75;85.58;100776.38;5072253;27;46910;-72
2023/04/28 03:25:29;;;;;;;;;1.00;1.00;;;;;16.77;85.32;100771.03;5080540;27;45421;-71
2023/04/28 03:28:09;;;;;;;;;1.00;1.00;;;;;16.82;84.78;100776.25;5095481;27;45582;-71
2023/04/28 03:30:40;;;;;;;;;1.00;1.00;;;;;16.89;85.02;100776.06;5076464;27;45486;-72
2023/04/28 03:33:18;;;;;;;;;1.00;1.00;;;;;16.87;84.68;100769.06;5077234;27;46950;-72
2023/04/28 03:35:54;;;;;;;;;1.33;1.33;;;;;16.68;84.34;100736.84;5080828;27;45572;-72
2023/04/28 03:38:46;;;;;;;;;1.00;1.00;;;;;16.75;84.63;100754.31;5076162;27;45440;-72
2023/04/28 03:41:19;;;;;;;;;0.00;0.00;;;;;16.83;84.57;100765.63;5073283;27;46042;-72
2023/04/28 03:44:03;;;;;;;;;1.33;1.00;;;;;16.76;84.35;100750.78;5077025;27;45500;-73
2023/04/28 03:46:41;;;;;;;;;0.00;0.00;;;;;16.77;84.25;100752.50;5079580;27;45424;-75
2023/04/28 03:49:13;;;;;;;;;1.00;1.00;;;;;16.88;84.30;100771.69;5079457;27;45773;-73
2023/04/28 03:51:50;;;;;;;;;1.00;1.00;;;;;16.85;84.32;100763.81;5076885;27;45398;-71
2023/04/28 03:54:24;;;;;;;;;0.67;0.67;;;;;16.81;84.31;100746.28;5091775;27;47949;-72
2023/04/28 03:56:50;;;;;;;;;2.00;0.33;;;;;16.88;84.47;100774.31;5075763;27;45485;-72
2023/04/28 03:59:15;;;;;;;;;1.00;1.00;;;;;16.91;84.04;100781.31;5074916;27;45449;-71
2023/04/28 04:01:41;;;;;;;;;0.00;0.00;;;;;16.92;83.90;100783.06;5079002;27;45528;-71
2023/04/28 04:04:06;;;;;;;;;1.00;1.00;;;;;16.87;83.69;100775.25;5079673;27;46206;-71
2023/04/28 04:06:32;;;;;;;;;0.00;0.00;;;;;16.91;83.58;100778.69;5095546;27;45489;-71
2023/04/28 04:08:58;;;;;;;;;2.00;0.00;;;;;16.94;83.64;100781.25;5075771;27;45493;-70
2023/04/28 04:11:23;;;;;;;;;0.00;0.00;;;;;16.88;83.75;100774.31;5075648;27;45480;-70
2023/04/28 04:13:49;;;;;;;;;0.00;0.00;;;;;16.82;83.38;100766.53;5074476;27;45576;-69
2023/04/28 04:16:15;;;;;;;;;1.00;1.00;;;;;16.91;83.91;100784.81;5073489;27;45454;-71
2023/04/28 04:18:41;;;;;;;;;1.00;1.00;;;;;16.91;83.99;100783.97;5079045;27;45425;-70
2023/04/28 04:21:07;;;;;;;;;1.00;1.00;;;;;16.90;83.64;100783.09;5061266;27;45370;-70
2023/04/28 04:23:32;;;;;;;;;0.67;0.67;;;;;16.84;83.42;100771.78;5056468;28;45403;-70
2023/04/28 04:25:58;;;;;;;;;1.00;1.00;;;;;16.81;83.51;100766.59;5072023;27;45903;-71
2023/04/28 04:28:23;;;;;;;;;1.00;1.00;;;;;16.89;83.78;100791.06;5091098;27;45466;-69
2023/04/28 04:30:49;;;;;;;;;0.33;0.00;;;;;16.88;83.64;100790.19;5077614;27;45425;-69
2023/04/28 04:33:15;;;;;;;;;0.00;0.00;;;;;16.82;83.33;100779.75;5075051;27;46931;-71
2023/04/28 04:35:40;;;;;;;;;0.00;0.00;;;;;16.78;83.57;100772.78;5075263;27;45684;-72
2023/04/28 04:38:06;;;;;;;;;0.67;0.67;;;;;16.80;83.78;100793.91;5075215;28;45347;-72
2023/04/28 04:40:32;;;;;;;;;0.00;0.00;;;;;16.84;83.85;100790.31;5090866;27;45491;-68
2023/04/28 04:42:57;;;;;;;;;0.00;0.00;;;;;16.82;83.37;100787.69;5074858;27;46572;-70
2023/04/28 04:45:23;;;;;;;;;1.00;1.00;;;;;16.86;83.51;100789.38;5076112;27;45727;-70
2023/04/28 04:47:49;;;;;;;;;1.33;1.33;;;;;16.84;83.91;100790.31;5077355;28;45579;-69
2023/04/28 04:50:14;;;;;;;;;0.00;0.00;;;;;16.86;83.56;100791.16;5090402;27;45425;-71
2023/04/28 04:52:40;;;;;;;;;2.00;1.00;;;;;16.81;83.54;100785.97;5074606;27;46680;-68
2023/04/28 04:55:06;;;;;;;;;0.67;0.67;;;;;16.87;83.65;100804.34;5090120;27;46073;-68
2023/04/28 04:57:31;;;;;;;;;1.00;1.00;;;;;16.88;83.96;100807.84;5080549;27;45413;-68
2023/04/28 04:59:57;;;;;;;;;1.00;0.00;;;;;16.85;84.14;100800.88;5062205;27;45554;-68
2023/04/28 05:02:22;;;;;;;;;1.00;1.00;;;;;16.89;83.47;100809.59;5056204;27;45431;-68
2023/04/28 05:04:48;;;;;;;;;1.00;1.00;;;;;16.90;83.42;100806.06;5053623;27;45730;-69
2023/04/28 05:07:14;;;;;;;;;2.00;1.00;;;;;16.87;83.51;100795.50;5056971;27;45539;-67
2023/04/28 05:09:39;;;;;;;;;1.00;1.00;;;;;16.84;83.46;100800.88;5059317;27;45430;-67
2023/04/28 05:12:05;;;;;;;;;3.33;1.00;;;;;16.89;83.33;100813.09;5091669;27;47006;-68
2023/04/28 05:14:30;;;;;;;;;1.67;1.67;;;;;16.78;83.48;100798.38;5058257;27;45358;-67
2023/04/28 05:16:56;;;;;;;;;1.33;1.33;;;;;16.81;83.40;100809.75;5069702;28;45418;-67
2023/04/28 05:19:22;;;;;;;;;0.67;0.67;;;;;16.85;83.43;100819.38;5079801;27;45865;-67
2023/04/28 05:21:47;;;;;;;;;1.67;1.00;;;;;16.84;83.21;100811.47;5078225;27;45637;-70
2023/04/28 05:24:14;;;;;;;;;3.33;2.00;;;;;16.88;83.25;100821.09;5069823;27;45373;-68
2023/04/28 05:26:40;;;;;;;;;1.67;1.67;;;;;16.86;83.13;100813.16;5053033;27;45843;-67
2023/04/28 05:29:05;;;;;;;;;1.33;1.33;;;;;16.82;82.84;100810.63;5086388;27;45501;-67
2023/04/28 05:31:31;;;;;;;;;1.00;1.00;;;;;16.93;82.95;100819.19;5053928;28;45958;-67
2023/04/28 05:33:57;;;;;;;;;1.67;1.00;;;;;16.86;82.79;100810.53;5056556;27;45286;-67
2023/04/28 05:36:23;;;;;;;;;1.00;1.00;;;;;16.92;82.52;100820.97;5073087;27;45574;-68
2023/04/28 05:38:49;;;;;;;;;3.33;1.00;;;;;16.80;82.92;100809.78;5065043;28;45367;-67
2023/04/28 05:41:14;;;;;;;;;1.00;1.00;;;;;16.89;82.83;100821.03;5055420;27;45825;-67
2023/04/28 05:43:41;;;;;;;;;2.00;1.00;;;;;16.83;82.57;100805.31;5055555;28;45584;-69
2023/04/28 05:46:07;;;;;;;;;1.00;1.00;;;;;16.95;82.72;100826.19;5058648;28;45555;-70
2023/04/28 05:48:42;;;;;;;;;2.67;2.00;;;;;16.84;82.83;100809.69;5056202;27;45667;-68
2023/04/28 05:51:07;;;;;;;;;1.00;1.00;;;;;16.90;82.84;100819.28;5060851;27;46511;-68
2023/04/28 05:53:33;;;;;;;;;1.00;1.00;;;;;16.88;83.18;100818.44;5055280;27;45493;-68
2023/04/28 05:56:00;;;;;;;;;1.00;1.00;;;;;16.91;83.11;100821.00;5058582;27;45538;-68
2023/04/28 05:58:25;;;;;;;;;1.00;1.00;;;;;16.98;83.00;100824.38;5059395;27;45448;-69
2023/04/28 06:00:53;;;;;;;;;1.00;1.00;;;;;17.00;82.55;100825.22;5057805;27;45516;-68
2023/04/28 06:03:19;;;;;;;;;2.33;1.00;;;;;17.03;82.41;100835.72;5057180;27;45698;-68
2023/04/28 06:05:45;;;;;;;;;3.00;2.00;;;;;17.04;81.93;100829.56;5052865;28;45493;-69
2023/04/28 06:08:11;;;;;;;;;1.00;1.00;;;;;17.07;82.01;100826.81;5054093;28;45458;-68
2023/04/28 06:10:36;;;;;;;;;0.67;0.67;;;;;17.05;82.43;100823.34;5053070;27;46446;-69
2023/04/28 06:13:03;;;;;;;;;1.00;1.00;;;;;17.01;82.31;100821.66;5053280;27;45564;-68
2023/04/28 06:15:29;;;;;;;;;0.33;0.33;;;;;17.07;82.25;100821.53;5053272;27;45441;-68
2023/04/28 06:17:55;;;;;;;;;2.00;2.00;;;;;16.98;81.96;100819.97;5067652;28;45322;-69
2023/04/28 06:20:20;;;;;;;;;3.00;1.00;;;;;17.08;82.08;100831.19;5084649;27;46717;-71
2023/04/28 06:22:46;;;;;;;;;1.00;1.00;;;;;17.03;81.83;100827.78;5070091;27;45458;-70
2023/04/28 06:25:12;;;;;;;;;3.33;2.67;;;;;17.01;82.70;100832.25;5073069;27;45423;-71
2023/04/28 06:27:40;;;;;;;;;2.00;1.67;;;;;17.05;82.04;100836.56;5088787;27;45421;-71
2023/04/28 06:30:06;;;;;;;;;2.00;2.00;;;;;17.02;82.31;100826.06;5072435;28;45752;-71
2023/04/28 06:32:32;;;;;;;;;3.00;1.33;;;;;16.94;82.36;100813.88;5052706;27;45396;-70
2023/04/28 06:34:58;;;;;;;;;4.00;1.00;;;;;17.08;82.00;100837.34;5056570;27;45421;-70
2023/04/28 06:37:23;;;;;;;;;3.00;3.00;;;;;17.12;82.04;100841.69;5072192;27;45508;-71
2023/04/28 06:39:49;;;;;;;;;3.00;3.00;;;;;17.08;82.10;100832.06;5084175;27;46575;-70
2023/04/28 06:42:17;;;;;;;;;4.00;1.00;;;;;17.05;81.99;100828.63;5052765;27;45462;-70
2023/04/28 06:44:44;;;;;;;;;1.67;1.67;;;;;17.08;82.25;100836.50;5051331;27;45485;-70
2023/04/28 06:47:10;;;;;;;;;3.33;2.00;;;;;17.08;81.84;100828.56;5052926;28;45541;-69
2023/04/28 06:49:35;;;;;;;;;2.00;2.00;;;;;17.14;81.94;100831.06;5084804;27;47496;-70
2023/04/28 06:52:01;;;;;;;;;1.00;1.00;;;;;17.19;81.73;100836.25;5054574;27;45567;-70
2023/04/28 06:54:26;;;;;;;;;2.00;2.00;;;;;17.21;81.21;100834.44;5054172;28;45333;-69
2023/04/28 06:56:52;;;;;;;;;2.67;2.67;;;;;17.24;81.22;100856.41;5092814;27;45450;-68
2023/04/28 06:59:17;;;;;;;;;3.00;3.00;;;;;17.20;81.22;100841.50;5059127;27;47694;-70
2023/04/28 07:01:43;;;;;;;;;2.67;2.00;;;;;17.27;81.07;100853.66;5060462;27;45505;-70
2023/04/28 07:04:09;;;;;;;;;2.00;2.00;;;;;17.28;81.18;100850.13;5060603;27;45457;-70
2023/04/28 07:06:34;;;;;;;;;3.00;3.00;;;;;17.31;80.92;100843.91;5055144;27;45418;-72
2023/04/28 07:09:00;;;;;;;;;4.00;2.00;;;;;17.42;80.51;100854.25;5059333;27;45891;-69
2023/04/28 07:11:25;;;;;;;;;4.00;3.00;;;;;17.44;80.60;100847.09;5060210;27;45379;-71
2023/04/28 07:13:51;;;;;;;;;3.67;3.00;;;;;17.50;80.22;100853.13;5060429;27;45398;-70
2023/04/28 07:16:17;;;;;;;;;4.00;3.00;;;;;17.46;80.07;100853.22;5066223;27;45492;-70
2023/04/28 07:18:43;;;;;;;;;3.00;2.00;;;;;17.47;79.92;100857.63;5068291;27;45425;-69
2023/04/28 07:21:09;;;;;;;;;3.00;3.00;;;;;17.52;79.78;100858.38;5072437;27;45769;-70
2023/04/28 07:23:37;;;;;;;;;4.00;2.00;;;;;17.58;79.54;100855.56;5066071;27;45468;-69
2023/04/28 07:26:03;;;;;;;;;2.00;2.00;;;;;17.53;79.17;100847.72;5074397;27;45623;-70
2023/04/28 07:28:28;;;;;;;;;2.33;2.00;;;;;17.59;79.31;100860.84;5078288;27;45425;-69
2023/04/28 07:30:54;;;;;;;;;2.00;2.00;;;;;17.60;78.97;100859.91;5079063;27;45381;-69
2023/04/28 07:33:19;;;;;;;;;2.00;2.00;;;;;17.68;78.92;100874.78;5080621;27;45365;-71
2023/04/28 07:35:45;;;;;;;;;2.00;2.00;;;;;17.64;78.49;100855.44;5076563;27;45588;-69
2023/04/28 07:38:11;;;;;;;;;6.00;2.00;;;;;17.66;78.58;100872.16;5077241;27;45468;-70
2023/04/28 07:40:36;;;;;;;;;6.67;2.67;;;;;17.69;78.56;100861.47;5078038;27;45540;-72
2023/04/28 07:43:02;;;;;;;;;2.00;2.00;;;;;17.76;78.69;100872.78;5075763;27;45339;-68
2023/04/28 07:45:28;;;;;;;;;2.00;2.00;;;;;17.73;78.52;100855.19;5079373;27;45448;-66
2023/04/28 07:47:54;;;;;;;;;3.00;2.00;;;;;17.84;78.06;100864.66;5076055;27;45528;-70
2023/04/28 07:50:19;;;;;;;;;5.00;2.00;;;;;17.96;77.50;100877.59;5076459;27;45878;-68
2023/04/28 07:52:45;;;;;;;;;2.33;2.33;;;;;17.98;77.04;100867.81;5078724;27;45469;-67
2023/04/28 07:55:10;;;;;;;;;3.33;3.00;;;;;18.09;77.18;100876.38;5060350;27;46403;-69
2023/04/28 07:57:36;;;;;;;;;2.00;2.00;;;;;18.19;76.67;100883.16;5089983;27;47282;-69
2023/04/28 08:00:02;;;;;;;;;2.00;2.00;;;;;18.19;76.22;100851.34;5058689;27;45584;-69
2023/04/28 08:02:28;;;;;;;;;2.33;1.00;;;;;18.30;75.62;100874.91;5055712;28;45670;-70
2023/04/28 08:04:53;;;;;;;;;1.33;1.33;;;;;18.39;75.27;100871.16;5057201;27;45532;-71
2023/04/28 08:07:19;;;;;;;;;2.00;2.00;;;;;18.32;74.80;100837.72;5069164;27;46001;-69
2023/04/28 08:09:47;;;;;;;;;3.33;2.00;;;;;18.59;74.34;100875.88;5059709;27;45785;-70
2023/04/28 08:12:13;;;;;;;;;3.00;3.00;;;;;18.64;74.34;100873.94;5056738;27;45220;-71
2023/04/28 08:14:39;;;;;;;;;2.67;2.67;;;;;18.72;73.77;100863.09;5059123;27;45687;-69
2023/04/28 08:17:04;;;;;;;;;2.67;2.67;;;;;18.82;73.37;100877.88;5070179;28;45706;-69
2023/04/28 08:19:30;;;;;;;;;3.00;2.00;;;;;18.86;72.81;100871.56;5081325;27;45470;-71
2023/04/28 08:21:55;;;;;;;;;1.00;1.00;;;;;18.93;73.08;100877.53;5078469;27;45514;-71
2023/04/28 08:24:21;;;;;;;;;2.00;2.00;;;;;18.95;72.23;100875.72;5075265;27;45484;-71
2023/04/28 08:26:47;;;;;;;;;2.00;2.00;;;;;18.97;71.76;100868.59;5079294;27;45744;-70
2023/04/28 08:29:12;;;;;;;;;2.00;2.00;;;;;19.00;71.96;100865.81;5096797;27;45480;-73
2023/04/28 08:31:38;;;;;;;;;1.33;1.33;;;;;19.00;71.76;100877.31;5092694;27;45519;-69
2023/04/28 08:34:03;;;;;;;;;1.33;1.33;;;;;19.05;71.56;100887.78;5077580;27;45589;-71
2023/04/28 08:36:31;;;;;;;;;5.00;2.00;;;;;19.01;71.73;100883.50;5078425;27;45471;-70
2023/04/28 08:38:58;;;;;;;;;1.67;1.00;;;;;18.95;71.36;100884.53;5079183;27;45381;-70
2023/04/28 08:41:26;;;;;;;;;1.00;1.00;;;;;18.90;71.78;100881.16;5081555;27;45517;-69
2023/04/28 08:43:53;;;;;;;;;1.67;1.67;;;;;18.92;70.99;100870.50;5081504;27;45505;-71
2023/04/28 08:46:20;;;;;;;;;3.00;2.00;;;;;18.94;70.48;100874.00;5081038;27;45713;-68
2023/04/28 08:48:48;;;;;;;;;1.00;1.00;;;;;19.01;70.93;100883.50;5076646;27;45357;-71
2023/04/28 08:51:27;;;;;;;;;2.00;2.00;;;;;19.01;70.50;100876.41;5091089;27;45360;-72
2023/04/28 08:53:54;;;;;;;;;1.67;1.67;;;;;19.06;69.97;100886.88;5067862;27;45440;-68
2023/04/28 08:56:23;;;;;;;;;1.00;1.00;;;;;19.01;70.46;100879.06;5079952;27;46309;-70
2023/04/28 08:58:52;;;;;;;;;3.00;1.67;;;;;19.04;69.93;100884.28;5065147;27;45634;-70
2023/04/28 09:01:17;;;;;;;;;3.00;3.00;;;;;19.04;70.22;100886.06;5079852;27;45615;-70
2023/04/28 09:03:43;;;;;;;;;4.00;2.00;;;;;18.98;70.26;100894.19;5079436;27;45515;-68
2023/04/28 09:06:09;;;;;;;;;3.00;2.00;;;;;18.93;69.89;100889.03;5077572;27;45466;-69
2023/04/28 09:08:34;;;;;;;;;2.00;2.00;;;;;18.94;69.92;100885.47;5090129;27;45489;-70
2023/04/28 09:11:08;;;;;;;;;1.33;1.33;;;;;18.95;69.67;100886.34;5076414;27;45279;-70
2023/04/28 09:13:34;;;;;;;;;2.00;2.00;;;;;18.92;69.73;100882.00;5078356;27;45451;-72
2023/04/28 09:16:01;;;;;;;;;2.00;2.00;;;;;18.95;69.87;100889.84;5089772;27;46362;-70
2023/04/28 09:18:27;;;;;;;;;3.33;3.00;;;;;18.96;69.59;100888.97;5071264;27;46643;-70
2023/04/28 09:21:03;;;;;;;;;2.00;2.00;;;;;18.95;69.15;100889.84;5060401;27;45370;-68
2023/04/28 09:23:28;;;;;;;;;3.00;1.00;;;;;18.91;69.33;100892.66;5074261;27;45409;-70
2023/04/28 09:26:06;;;;;;;;;3.00;1.33;;;;;18.87;69.43;100880.41;5062282;28;46150;-70
2023/04/28 09:28:33;;;;;;;;;2.00;2.00;;;;;18.84;69.50;100891.97;5064989;28;45489;-69
2023/04/28 09:31:00;;;;;;;;;4.00;2.67;;;;;18.87;69.36;100901.63;5062870;27;45559;-70
2023/04/28 09:33:26;;;;;;;;;2.00;2.00;;;;;18.86;69.18;100892.78;5058264;27;45983;-71
2023/04/28 09:35:52;;;;;;;;;3.67;2.00;;;;;18.81;69.12;100890.25;5090712;27;47005;-70
2023/04/28 09:38:19;;;;;;;;;3.00;2.00;;;;;18.80;69.36;100883.22;5057866;27;45342;-71
2023/04/28 09:41:01;;;;;;;;;2.00;2.00;;;;;18.82;69.07;100889.38;5054105;27;45491;-71
2023/04/28 09:43:34;;;;;;;;;2.00;2.00;;;;;18.86;68.99;100890.13;5071397;27;45612;-69
2023/04/28 09:46:02;;;;;;;;;2.00;2.00;;;;;18.87;68.77;100896.31;5069543;27;45505;-72
2023/04/28 09:48:31;;;;;;;;;2.00;2.00;;;;;18.84;68.58;100897.28;5076622;27;45548;-71
2023/04/28 09:50:59;;;;;;;;;2.00;2.00;;;;;18.75;68.44;100890.44;5055962;27;45481;-67
2023/04/28 09:53:26;;;;;;;;;1.67;1.67;;;;;18.78;68.33;100884.19;5069174;27;45927;-68
2023/04/28 09:55:55;;;;;;;;;1.00;1.00;;;;;18.92;68.23;100907.66;5054616;28;46233;-69
2023/04/28 09:58:22;;;;;;;;;1.00;1.00;;;;;18.94;68.11;100908.50;5070126;27;45704;-68
2023/04/28 10:00:57;;;;;;;;;2.67;2.67;;;;;19.06;67.91;100911.63;5059321;27;45329;-69
2023/04/28 10:03:25;;;;;;;;;2.00;2.00;;;;;19.19;67.54;100916.56;5055926;28;45334;-69
2023/04/28 10:05:52;;;;;;;;;1.67;1.67;;;;;19.26;66.55;100912.81;5052736;28;45718;-69
2023/04/28 10:08:22;;;;;;;;;1.00;1.00;;;;;19.35;66.99;100904.56;5064753;27;45705;-67
2023/04/28 10:10:53;;;;;;;;;3.00;2.00;;;;;19.42;66.25;100906.09;5073018;27;45390;-67
2023/04/28 10:13:22;;;;;;;;;1.00;1.00;;;;;19.53;66.28;100916.38;5076387;27;45849;-67
2023/04/28 10:15:49;;;;;;;;;1.33;1.33;;;;;19.49;65.40;100904.97;5075893;28;46094;-68
2023/04/28 10:18:17;;;;;;;;;2.00;1.00;;;;;19.65;64.96;100921.31;5053578;28;45409;-68
2023/04/28 10:20:48;;;;;;;;;2.00;2.00;;;;;19.72;64.55;100902.50;5067186;27;45555;-68
2023/04/28 10:23:45;;;;;;;;;1.00;1.00;;;;;19.80;64.36;100916.44;5089363;27;45372;-68
2023/04/28 10:26:13;;;;;;;;;1.33;1.33;;;;;19.80;63.36;100911.97;5088235;27;47877;-69
2023/04/28 10:28:46;;;;;;;;;1.00;1.00;;;;;19.75;63.02;100910.41;5072863;27;45359;-68
2023/04/28 10:31:16;;;;;;;;;2.33;1.00;;;;;19.74;63.25;100906.00;5076307;27;45486;-68
2023/04/28 10:33:42;;;;;;;;;1.00;1.00;;;;;19.75;62.90;100911.28;5077168;27;45473;-68
2023/04/28 10:36:08;;;;;;;;;2.00;2.00;;;;;19.88;62.19;100909.94;5077209;27;46047;-68
2023/04/28 10:38:35;;;;;;;;;1.00;1.00;;;;;20.00;61.69;100908.63;5080514;27;45400;-71
2023/04/28 10:41:04;;;;;;;;;1.00;1.00;;;;;20.03;61.18;100919.19;5081094;27;45483;-71
2023/04/28 10:43:30;;;;;;;;;1.00;1.00;;;;;20.06;61.61;100915.53;5081310;27;45472;-69
2023/04/28 10:45:57;;;;;;;;;1.00;1.00;;;;;20.11;61.39;100922.44;5078744;27;46190;-69
2023/04/28 10:48:45;;;;;;;;;2.67;1.00;;;;;20.16;60.91;100914.28;5075941;27;45610;-70
2023/04/28 10:51:14;;;;;;;;;1.67;1.67;;;;;20.38;60.55;100916.19;5089296;27;45448;-68
2023/04/28 10:53:43;;;;;;;;;1.00;1.00;;;;;20.60;59.85;100913.69;5076683;27;45693;-69
2023/04/28 10:56:18;;;;;;;;;1.00;1.00;;;;;20.82;59.52;100913.72;5076864;27;46221;-70
2023/04/28 10:58:45;;;;;;;;;1.67;1.33;;;;;21.09;58.50;100907.31;5076214;27;45362;-69
2023/04/28 11:01:23;;;;;;;;;1.00;1.00;;;;;21.24;58.07;100903.22;5092702;27;45561;-68
2023/04/28 11:03:52;;;;;;;;;1.33;1.33;;;;;21.31;57.50;100910.03;5066457;27;45333;-68
2023/04/28 11:06:35;;;;;;;;;2.67;1.33;;;;;21.27;57.56;100903.09;5068888;27;45459;-68
2023/04/28 11:09:29;;;;;;;;;2.00;2.00;;;;;21.35;57.24;100905.44;5059348;27;45394;-67
2023/04/28 11:12:10;;;;;;;;;1.00;1.00;;;;;21.52;57.03;100913.66;5055499;27;45461;-69
2023/04/28 11:14:39;;;;;;;;;2.00;2.00;;;;;21.66;56.46;100914.88;5057412;27;45305;-69
2023/04/28 11:17:07;;;;;;;;;1.33;1.33;;;;;21.80;56.35;100912.50;5092826;27;47400;-68
2023/04/28 11:19:37;;;;;;;;;2.00;2.00;;;;;22.00;56.13;100915.22;5078222;27;45516;-69
2023/04/28 11:22:10;;;;;;;;;1.00;1.00;;;;;22.25;55.41;100915.97;5078352;27;45414;-68
2023/04/28 11:24:36;;;;;;;;;3.00;3.00;;;;;22.59;54.63;100904.66;5075145;27;45597;-68
2023/04/28 11:27:02;;;;;;;;;2.67;2.67;;;;;22.69;54.25;100897.13;5080348;27;45575;-68
2023/04/28 11:29:42;;;;;;;;;2.00;1.00;;;;;22.75;54.13;100899.50;5076442;27;45658;-69
2023/04/28 11:32:09;;;;;;;;;1.67;1.67;;;;;22.81;53.85;100900.09;5094298;27;45360;-69
2023/04/28 11:34:35;;;;;;;;;1.67;1.00;;;;;22.88;54.07;100891.78;5080947;27;45649;-69
2023/04/28 11:37:01;;;;;;;;;2.00;2.00;;;;;22.96;53.38;100887.81;5076592;27;45717;-69
2023/04/28 11:39:29;;;;;;;;;2.75;1.00;;;;;23.03;53.54;100886.59;5076257;27;45271;-68
2023/04/28 11:41:55;;;;;;;;;2.00;2.00;;;;;23.17;53.19;100887.75;5075248;27;45515;-68
2023/04/28 11:44:26;;;;;;;;;3.33;2.00;;;;;23.24;52.49;100894.53;5078092;28;45458;-69
2023/04/28 11:46:59;;;;;;;;;2.67;2.67;;;;;23.17;51.79;100869.91;5077249;27;45453;-67